Aérodrome :
LOGIN :

S'inscrire | Disclaimer

   EN    FR    IT 

 










Légende :    VFR   VFR Marginal   IFR   IFR Intensif   IFR Très Intensif
Visi : 
Plafond : 
>= 8 km
>= 3000ft
5 à 8 km
1000 à 3000 ft
1500m à 5 km
500 à 1000 ft
800 à 1500m
200 à 500 ft
< 800m
< 200 ft
Symboles :   Orages  Brouillard  Fortes neiges  Fortes précipitations  Vent > 20 kt
SIGMETs :   Divers  Orages  Givrage  Turbulence  Onde Orograph.  Cendres Volcan.







- Altitude de l'aérodrome : 284 ft


EGUW - RAF Wattisham

DERNIER METAR :
  • 230650Z 24015KT 9999 SCT017 BKN030 12/10 Q0988 WHT

METARs EXPIRÉS :
  • 230550Z AUTO 23016KT 9999 FEW013/// BKN019/// 13/11 Q0987 RERA
  • 230450Z AUTO 22016KT 9999 -RA BKN012/// SCT040/// 12/11 Q0986

TAF TAF EGUW
Valide du 23 à 07h jusqu'au 23 à 15h UTC


230711Z 2307/2315 20015G25KT 9999 BKN015
PROB30
TEMPO 2307/2308 SCT010
BECMG 2309/2312 22022G35KT FEW025
Pas de NOTAMs connus pour ce terrain.
1 SIGMET publié pour la FIR London (EGTT) :
 
Turbulence forte
EGTT SIGMET 02 VALID 230600/231000 EGRR
EGTT LONDON FIR SEV TURB FCST E OF LINE N5000 W00015 - N5500 E00258 SFC/FL060 MOV E 20KT WKN=



MET'MAP, la Météo Aéronautique d'un coup d'oeil ! - Copyright ORBIFLY Décembre 2007 - Disclaimer

ORBIFLY MET'MAP TEAM :

Programmation & Développement : Alexandra Zaïnal
Conception & Développement : Baudouin d'Aumeries
Co-Programmation & Développement : Marc-Olivier Méhu
Soutien technique & logistique : Manuel Goepfert

Contact : metmap@orbifly.com




SOURCES & CREDITS :

   NOAA